sensor_id;sensor_type;location;lat;lon;timestamp;temperature;humidity
18287;DHT22;9269;50.838;12.094;2023-06-26T00:00:59;25.00;32.80
18287;DHT22;9269;50.838;12.094;2023-06-26T00:03:30;25.10;33.40
18287;DHT22;9269;50.838;12.094;2023-06-26T00:06:01;25.00;33.30
18287;DHT22;9269;50.838;12.094;2023-06-26T00:08:29;25.00;33.00
18287;DHT22;9269;50.838;12.094;2023-06-26T00:10:59;24.90;33.10
18287;DHT22;9269;50.838;12.094;2023-06-26T00:13:29;24.90;33.00
18287;DHT22;9269;50.838;12.094;2023-06-26T00:15:59;24.90;32.40
18287;DHT22;9269;50.838;12.094;2023-06-26T00:18:34;24.80;32.90
18287;DHT22;9269;50.838;12.094;2023-06-26T00:21:04;24.80;32.90
18287;DHT22;9269;50.838;12.094;2023-06-26T00:23:32;24.80;32.80
18287;DHT22;9269;50.838;12.094;2023-06-26T00:26:06;24.80;32.90
18287;DHT22;9269;50.838;12.094;2023-06-26T00:28:37;24.70;32.60
18287;DHT22;9269;50.838;12.094;2023-06-26T00:31:08;24.70;33.00
18287;DHT22;9269;50.838;12.094;2023-06-26T00:33:39;24.80;32.80
18287;DHT22;9269;50.838;12.094;2023-06-26T00:36:11;24.70;33.10
18287;DHT22;9269;50.838;12.094;2023-06-26T00:38:39;24.60;33.20
18287;DHT22;9269;50.838;12.094;2023-06-26T00:41:09;24.60;33.00
18287;DHT22;9269;50.838;12.094;2023-06-26T00:43:43;24.60;32.80
18287;DHT22;9269;50.838;12.094;2023-06-26T00:46:14;24.50;32.80
18287;DHT22;9269;50.838;12.094;2023-06-26T00:48:46;24.50;33.20
18287;DHT22;9269;50.838;12.094;2023-06-26T00:51:20;24.50;33.80
18287;DHT22;9269;50.838;12.094;2023-06-26T00:53:51;24.50;33.50
18287;DHT22;9269;50.838;12.094;2023-06-26T00:56:23;24.50;33.80
18287;DHT22;9269;50.838;12.094;2023-06-26T00:58:54;24.40;33.70
18287;DHT22;9269;50.838;12.094;2023-06-26T01:01:25;24.40;33.30
18287;DHT22;9269;50.838;12.094;2023-06-26T01:03:56;24.40;33.80
18287;DHT22;9269;50.838;12.094;2023-06-26T01:06:30;24.30;33.50
18287;DHT22;9269;50.838;12.094;2023-06-26T01:09:04;24.30;33.70
18287;DHT22;9269;50.838;12.094;2023-06-26T01:11:33;24.30;33.80
18287;DHT22;9269;50.838;12.094;2023-06-26T01:14:03;24.30;33.80
18287;DHT22;9269;50.838;12.094;2023-06-26T01:16:35;24.20;34.00
18287;DHT22;9269;50.838;12.094;2023-06-26T01:19:10;24.20;34.00
18287;DHT22;9269;50.838;12.094;2023-06-26T01:21:44;24.30;34.50
18287;DHT22;9269;50.838;12.094;2023-06-26T01:24:17;24.20;34.40
18287;DHT22;9269;50.838;12.094;2023-06-26T01:26:51;24.20;34.50
18287;DHT22;9269;50.838;12.094;2023-06-26T01:29:24;24.20;34.70
18287;DHT22;9269;50.838;12.094;2023-06-26T01:31:56;24.10;34.70
18287;DHT22;9269;50.838;12.094;2023-06-26T01:34:27;24.10;34.80
18287;DHT22;9269;50.838;12.094;2023-06-26T01:36:58;24.10;35.10
18287;DHT22;9269;50.838;12.094;2023-06-26T01:39:29;24.10;35.60
18287;DHT22;9269;50.838;12.094;2023-06-26T01:42:01;24.10;36.10
18287;DHT22;9269;50.838;12.094;2023-06-26T01:44:30;24.10;35.70
18287;DHT22;9269;50.838;12.094;2023-06-26T01:47:04;24.10;36.00
18287;DHT22;9269;50.838;12.094;2023-06-26T01:49:41;24.00;35.90
18287;DHT22;9269;50.838;12.094;2023-06-26T01:52:19;24.00;36.30
18287;DHT22;9269;50.838;12.094;2023-06-26T01:54:55;24.00;36.60
18287;DHT22;9269;50.838;12.094;2023-06-26T01:57:27;24.00;36.30
18287;DHT22;9269;50.838;12.094;2023-06-26T01:59:58;23.90;36.40
18287;DHT22;9269;50.838;12.094;2023-06-26T02:02:29;24.00;36.10
18287;DHT22;9269;50.838;12.094;2023-06-26T02:04:59;23.90;36.30
18287;DHT22;9269;50.838;12.094;2023-06-26T02:07:29;24.00;36.30
18287;DHT22;9269;50.838;12.094;2023-06-26T02:09:59;23.90;36.60
18287;DHT22;9269;50.838;12.094;2023-06-26T02:12:31;23.90;36.20
18287;DHT22;9269;50.838;12.094;2023-06-26T02:15:02;23.80;35.90
18287;DHT22;9269;50.838;12.094;2023-06-26T02:17:33;23.80;36.20
18287;DHT22;9269;50.838;12.094;2023-06-26T02:20:04;23.70;36.10
18287;DHT22;9269;50.838;12.094;2023-06-26T02:22:39;23.80;36.30
18287;DHT22;9269;50.838;12.094;2023-06-26T02:25:10;23.80;37.20
18287;DHT22;9269;50.838;12.094;2023-06-26T02:27:43;23.80;37.10
18287;DHT22;9269;50.838;12.094;2023-06-26T02:30:12;23.80;37.00
18287;DHT22;9269;50.838;12.094;2023-06-26T02:32:41;23.70;37.20
18287;DHT22;9269;50.838;12.094;2023-06-26T02:35:10;23.80;37.50
18287;DHT22;9269;50.838;12.094;2023-06-26T02:37:41;23.70;37.40
18287;DHT22;9269;50.838;12.094;2023-06-26T02:40:11;23.70;37.50
18287;DHT22;9269;50.838;12.094;2023-06-26T02:42:44;23.70;37.40
18287;DHT22;9269;50.838;12.094;2023-06-26T02:45:15;23.70;37.60
18287;DHT22;9269;50.838;12.094;2023-06-26T02:47:46;23.60;37.60
18287;DHT22;9269;50.838;12.094;2023-06-26T02:50:17;23.70;37.80
18287;DHT22;9269;50.838;12.094;2023-06-26T02:52:49;23.60;38.00
18287;DHT22;9269;50.838;12.094;2023-06-26T02:55:19;23.70;38.20
18287;DHT22;9269;50.838;12.094;2023-06-26T02:57:51;23.70;38.00
18287;DHT22;9269;50.838;12.094;2023-06-26T03:00:19;23.60;39.00
18287;DHT22;9269;50.838;12.094;2023-06-26T03:02:49;23.60;39.20
18287;DHT22;9269;50.838;12.094;2023-06-26T03:05:19;23.60;39.10
18287;DHT22;9269;50.838;12.094;2023-06-26T03:07:51;23.60;37.80
18287;DHT22;9269;50.838;12.094;2023-06-26T03:10:19;23.50;38.90
18287;DHT22;9269;50.838;12.094;2023-06-26T03:12:51;23.60;38.90
18287;DHT22;9269;50.838;12.094;2023-06-26T03:15:20;23.50;38.40
18287;DHT22;9269;50.838;12.094;2023-06-26T03:17:49;23.60;38.80
18287;DHT22;9269;50.838;12.094;2023-06-26T03:20:19;23.60;38.10
18287;DHT22;9269;50.838;12.094;2023-06-26T03:22:49;23.50;38.00
18287;DHT22;9269;50.838;12.094;2023-06-26T03:25:19;23.50;37.80
18287;DHT22;9269;50.838;12.094;2023-06-26T03:27:51;23.40;38.10
18287;DHT22;9269;50.838;12.094;2023-06-26T03:30:22;23.40;37.80
18287;DHT22;9269;50.838;12.094;2023-06-26T03:32:53;23.40;37.70
18287;DHT22;9269;50.838;12.094;2023-06-26T03:35:24;23.40;37.50
18287;DHT22;9269;50.838;12.094;2023-06-26T03:37:55;23.50;37.60
18287;DHT22;9269;50.838;12.094;2023-06-26T03:40:27;23.40;38.00
18287;DHT22;9269;50.838;12.094;2023-06-26T03:42:58;23.30;38.30
18287;DHT22;9269;50.838;12.094;2023-06-26T03:45:29;23.40;37.80
18287;DHT22;9269;50.838;12.094;2023-06-26T03:47:59;23.40;38.20
18287;DHT22;9269;50.838;12.094;2023-06-26T03:50:29;23.40;38.10
18287;DHT22;9269;50.838;12.094;2023-06-26T03:52:58;23.40;37.90
18287;DHT22;9269;50.838;12.094;2023-06-26T03:55:29;23.40;37.90
18287;DHT22;9269;50.838;12.094;2023-06-26T03:57:59;23.50;38.00
18287;DHT22;9269;50.838;12.094;2023-06-26T04:00:29;23.40;37.70
18287;DHT22;9269;50.838;12.094;2023-06-26T04:02:59;23.40;38.00
18287;DHT22;9269;50.838;12.094;2023-06-26T04:05:33;23.50;37.30
18287;DHT22;9269;50.838;12.094;2023-06-26T04:08:04;23.50;37.70
18287;DHT22;9269;50.838;12.094;2023-06-26T04:10:32;23.40;38.10
18287;DHT22;9269;50.838;12.094;2023-06-26T04:13:04;23.50;37.70
18287;DHT22;9269;50.838;12.094;2023-06-26T04:15:33;23.50;38.10
18287;DHT22;9269;50.838;12.094;2023-06-26T04:18:04;23.60;38.00
18287;DHT22;9269;50.838;12.094;2023-06-26T04:20:36;23.50;38.30
18287;DHT22;9269;50.838;12.094;2023-06-26T04:23:09;23.60;37.90
18287;DHT22;9269;50.838;12.094;2023-06-26T04:25:39;23.60;36.80
18287;DHT22;9269;50.838;12.094;2023-06-26T04:28:11;23.70;36.90
18287;DHT22;9269;50.838;12.094;2023-06-26T04:30:39;23.70;36.40
18287;DHT22;9269;50.838;12.094;2023-06-26T04:33:10;23.70;36.80
18287;DHT22;9269;50.838;12.094;2023-06-26T04:35:39;23.80;36.50
18287;DHT22;9269;50.838;12.094;2023-06-26T04:38:09;23.80;36.40
18287;DHT22;9269;50.838;12.094;2023-06-26T04:40:39;23.80;36.90
18287;DHT22;9269;50.838;12.094;2023-06-26T04:43:11;23.80;36.80
18287;DHT22;9269;50.838;12.094;2023-06-26T04:45:42;23.90;36.30
18287;DHT22;9269;50.838;12.094;2023-06-26T04:48:14;23.90;36.30
18287;DHT22;9269;50.838;12.094;2023-06-26T04:50:46;23.90;36.90
18287;DHT22;9269;50.838;12.094;2023-06-26T04:53:20;24.10;36.30
18287;DHT22;9269;50.838;12.094;2023-06-26T04:55:50;24.10;36.30
18287;DHT22;9269;50.838;12.094;2023-06-26T04:58:21;24.20;36.00
18287;DHT22;9269;50.838;12.094;2023-06-26T05:00:49;24.10;36.10
18287;DHT22;9269;50.838;12.094;2023-06-26T05:03:19;24.30;36.00
18287;DHT22;9269;50.838;12.094;2023-06-26T05:05:49;24.30;36.10
18287;DHT22;9269;50.838;12.094;2023-06-26T05:08:22;24.30;35.80
18287;DHT22;9269;50.838;12.094;2023-06-26T05:10:53;24.40;35.80
18287;DHT22;9269;50.838;12.094;2023-06-26T05:13:29;24.60;35.80
18287;DHT22;9269;50.838;12.094;2023-06-26T05:16:00;24.50;35.60
18287;DHT22;9269;50.838;12.094;2023-06-26T05:18:30;24.70;35.90
18287;DHT22;9269;50.838;12.094;2023-06-26T05:21:00;24.70;36.00
18287;DHT22;9269;50.838;12.094;2023-06-26T05:23:31;24.90;35.60
18287;DHT22;9269;50.838;12.094;2023-06-26T05:26:03;24.90;35.60
18287;DHT22;9269;50.838;12.094;2023-06-26T05:28:36;25.00;35.50
18287;DHT22;9269;50.838;12.094;2023-06-26T05:31:08;25.00;35.50
18287;DHT22;9269;50.838;12.094;2023-06-26T05:33:37;25.10;35.20
18287;DHT22;9269;50.838;12.094;2023-06-26T05:36:07;25.20;35.30
18287;DHT22;9269;50.838;12.094;2023-06-26T05:38:36;25.30;35.40
18287;DHT22;9269;50.838;12.094;2023-06-26T05:41:06;25.40;35.40
18287;DHT22;9269;50.838;12.094;2023-06-26T05:43:37;25.40;35.40
18287;DHT22;9269;50.838;12.094;2023-06-26T05:46:09;25.50;35.00
18287;DHT22;9269;50.838;12.094;2023-06-26T05:48:40;25.70;35.50
18287;DHT22;9269;50.838;12.094;2023-06-26T05:51:10;25.80;35.00
18287;DHT22;9269;50.838;12.094;2023-06-26T05:53:39;25.80;35.20
18287;DHT22;9269;50.838;12.094;2023-06-26T05:56:09;26.00;35.00
18287;DHT22;9269;50.838;12.094;2023-06-26T05:58:41;26.10;34.80
18287;DHT22;9269;50.838;12.094;2023-06-26T06:01:13;26.10;34.90
18287;DHT22;9269;50.838;12.094;2023-06-26T06:03:42;26.20;35.00
18287;DHT22;9269;50.838;12.094;2023-06-26T06:06:13;26.30;35.00
18287;DHT22;9269;50.838;12.094;2023-06-26T06:08:45;26.50;34.20
18287;DHT22;9269;50.838;12.094;2023-06-26T06:11:16;26.60;33.90
18287;DHT22;9269;50.838;12.094;2023-06-26T06:13:46;26.70;33.90
18287;DHT22;9269;50.838;12.094;2023-06-26T06:16:16;26.80;33.70
18287;DHT22;9269;50.838;12.094;2023-06-26T06:18:44;27.00;33.70
18287;DHT22;9269;50.838;12.094;2023-06-26T06:21:13;27.00;33.30
18287;DHT22;9269;50.838;12.094;2023-06-26T06:23:44;27.10;33.60
18287;DHT22;9269;50.838;12.094;2023-06-26T06:26:16;27.20;33.30
18287;DHT22;9269;50.838;12.094;2023-06-26T06:28:46;27.40;33.30
18287;DHT22;9269;50.838;12.094;2023-06-26T06:31:17;27.50;33.00
18287;DHT22;9269;50.838;12.094;2023-06-26T06:33:48;27.50;33.20
18287;DHT22;9269;50.838;12.094;2023-06-26T06:36:17;27.70;32.90
18287;DHT22;9269;50.838;12.094;2023-06-26T06:38:47;27.80;32.60
18287;DHT22;9269;50.838;12.094;2023-06-26T06:41:15;27.90;32.50
18287;DHT22;9269;50.838;12.094;2023-06-26T06:43:55;28.00;31.80
18287;DHT22;9269;50.838;12.094;2023-06-26T06:46:26;28.20;32.20
18287;DHT22;9269;50.838;12.094;2023-06-26T06:48:55;28.30;31.70
18287;DHT22;9269;50.838;12.094;2023-06-26T06:51:27;28.40;32.00
18287;DHT22;9269;50.838;12.094;2023-06-26T06:53:56;28.50;31.40
18287;DHT22;9269;50.838;12.094;2023-06-26T06:56:25;28.70;31.60
18287;DHT22;9269;50.838;12.094;2023-06-26T06:58:55;28.80;31.10
18287;DHT22;9269;50.838;12.094;2023-06-26T07:01:26;29.00;31.50
18287;DHT22;9269;50.838;12.094;2023-06-26T07:03:56;29.00;30.70
18287;DHT22;9269;50.838;12.094;2023-06-26T07:06:26;29.10;30.00
18287;DHT22;9269;50.838;12.094;2023-06-26T07:09:00;29.20;29.90
18287;DHT22;9269;50.838;12.094;2023-06-26T07:11:28;29.40;29.60
18287;DHT22;9269;50.838;12.094;2023-06-26T07:13:59;29.50;29.70
18287;DHT22;9269;50.838;12.094;2023-06-26T07:16:27;29.60;29.60
18287;DHT22;9269;50.838;12.094;2023-06-26T07:18:56;29.70;29.80
18287;DHT22;9269;50.838;12.094;2023-06-26T07:21:24;29.90;29.50
18287;DHT22;9269;50.838;12.094;2023-06-26T07:23:53;30.00;29.30
18287;DHT22;9269;50.838;12.094;2023-06-26T07:26:22;30.10;29.10
18287;DHT22;9269;50.838;12.094;2023-06-26T07:29:07;30.40;29.00
18287;DHT22;9269;50.838;12.094;2023-06-26T07:31:36;30.50;28.80
18287;DHT22;9269;50.838;12.094;2023-06-26T07:34:04;30.60;28.80
18287;DHT22;9269;50.838;12.094;2023-06-26T07:36:34;30.70;28.40
18287;DHT22;9269;50.838;12.094;2023-06-26T07:39:03;30.80;28.70
18287;DHT22;9269;50.838;12.094;2023-06-26T07:41:31;30.90;28.40
18287;DHT22;9269;50.838;12.094;2023-06-26T07:44:00;31.00;27.90
18287;DHT22;9269;50.838;12.094;2023-06-26T07:46:30;31.10;27.50
18287;DHT22;9269;50.838;12.094;2023-06-26T07:48:58;31.20;27.70
18287;DHT22;9269;50.838;12.094;2023-06-26T07:51:27;31.30;27.40
18287;DHT22;9269;50.838;12.094;2023-06-26T07:53:55;31.40;27.60
18287;DHT22;9269;50.838;12.094;2023-06-26T07:56:25;31.50;26.60
18287;DHT22;9269;50.838;12.094;2023-06-26T07:58:54;31.60;27.00
18287;DHT22;9269;50.838;12.094;2023-06-26T08:01:24;31.70;27.10
18287;DHT22;9269;50.838;12.094;2023-06-26T08:03:54;31.90;25.40
18287;DHT22;9269;50.838;12.094;2023-06-26T08:06:23;32.10;25.70
18287;DHT22;9269;50.838;12.094;2023-06-26T08:08:51;32.30;25.80
18287;DHT22;9269;50.838;12.094;2023-06-26T08:11:20;32.30;25.40
18287;DHT22;9269;50.838;12.094;2023-06-26T08:13:48;32.40;24.70
18287;DHT22;9269;50.838;12.094;2023-06-26T08:16:17;32.50;24.50
18287;DHT22;9269;50.838;12.094;2023-06-26T08:18:46;32.50;24.60
18287;DHT22;9269;50.838;12.094;2023-06-26T08:21:16;32.60;25.40
18287;DHT22;9269;50.838;12.094;2023-06-26T08:23:44;32.80;23.80
18287;DHT22;9269;50.838;12.094;2023-06-26T08:26:13;32.90;23.60
18287;DHT22;9269;50.838;12.094;2023-06-26T08:28:42;32.90;23.60
18287;DHT22;9269;50.838;12.094;2023-06-26T08:31:11;33.10;24.00
18287;DHT22;9269;50.838;12.094;2023-06-26T08:33:40;33.20;24.00
18287;DHT22;9269;50.838;12.094;2023-06-26T08:36:09;33.20;23.00
18287;DHT22;9269;50.838;12.094;2023-06-26T08:38:39;33.40;22.60
18287;DHT22;9269;50.838;12.094;2023-06-26T08:41:08;33.50;22.50
18287;DHT22;9269;50.838;12.094;2023-06-26T08:43:37;33.70;22.30
18287;DHT22;9269;50.838;12.094;2023-06-26T08:46:05;33.70;22.40
18287;DHT22;9269;50.838;12.094;2023-06-26T08:48:36;33.90;22.30
18287;DHT22;9269;50.838;12.094;2023-06-26T08:51:09;34.00;21.80
18287;DHT22;9269;50.838;12.094;2023-06-26T08:53:46;34.00;21.50
18287;DHT22;9269;50.838;12.094;2023-06-26T08:56:17;34.30;21.60
18287;DHT22;9269;50.838;12.094;2023-06-26T08:58:49;34.30;21.30
18287;DHT22;9269;50.838;12.094;2023-06-26T09:01:17;34.30;20.40
18287;DHT22;9269;50.838;12.094;2023-06-26T09:03:46;34.50;19.60
18287;DHT22;9269;50.838;12.094;2023-06-26T09:06:15;34.50;19.60
18287;DHT22;9269;50.838;12.094;2023-06-26T09:08:46;34.70;17.80
18287;DHT22;9269;50.838;12.094;2023-06-26T09:11:16;34.70;18.90
18287;DHT22;9269;50.838;12.094;2023-06-26T09:13:45;35.00;18.10
18287;DHT22;9269;50.838;12.094;2023-06-26T09:16:15;35.10;17.80
18287;DHT22;9269;50.838;12.094;2023-06-26T09:18:45;35.30;17.50
18287;DHT22;9269;50.838;12.094;2023-06-26T09:21:14;35.30;18.50
18287;DHT22;9269;50.838;12.094;2023-06-26T09:23:46;35.50;18.00
18287;DHT22;9269;50.838;12.094;2023-06-26T09:26:15;35.50;17.50
18287;DHT22;9269;50.838;12.094;2023-06-26T09:28:44;35.70;16.40
18287;DHT22;9269;50.838;12.094;2023-06-26T09:31:13;35.80;16.60
18287;DHT22;9269;50.838;12.094;2023-06-26T09:33:57;35.80;16.90
18287;DHT22;9269;50.838;12.094;2023-06-26T09:36:29;36.00;16.50
18287;DHT22;9269;50.838;12.094;2023-06-26T09:39:06;36.20;15.60
18287;DHT22;9269;50.838;12.094;2023-06-26T09:41:40;36.00;16.40
18287;DHT22;9269;50.838;12.094;2023-06-26T09:44:11;36.20;16.60
18287;DHT22;9269;50.838;12.094;2023-06-26T09:46:45;36.20;15.80
18287;DHT22;9269;50.838;12.094;2023-06-26T09:49:14;36.20;15.90
18287;DHT22;9269;50.838;12.094;2023-06-26T09:51:42;36.20;14.40
18287;DHT22;9269;50.838;12.094;2023-06-26T09:54:15;36.40;15.40
18287;DHT22;9269;50.838;12.094;2023-06-26T09:56:44;36.50;15.20
18287;DHT22;9269;50.838;12.094;2023-06-26T09:59:13;36.70;15.10
18287;DHT22;9269;50.838;12.094;2023-06-26T10:01:47;36.90;15.00
18287;DHT22;9269;50.838;12.094;2023-06-26T10:04:16;36.90;14.40
18287;DHT22;9269;50.838;12.094;2023-06-26T10:06:46;36.90;14.50
18287;DHT22;9269;50.838;12.094;2023-06-26T10:09:19;37.00;13.80
18287;DHT22;9269;50.838;12.094;2023-06-26T10:11:51;37.00;13.30
18287;DHT22;9269;50.838;12.094;2023-06-26T10:14:27;37.10;13.50
18287;DHT22;9269;50.838;12.094;2023-06-26T10:16:58;37.20;12.70
18287;DHT22;9269;50.838;12.094;2023-06-26T10:19:28;37.20;12.70
18287;DHT22;9269;50.838;12.094;2023-06-26T10:21:59;37.20;12.30
18287;DHT22;9269;50.838;12.094;2023-06-26T10:24:32;37.20;11.60
18287;DHT22;9269;50.838;12.094;2023-06-26T10:27:06;37.30;12.00
18287;DHT22;9269;50.838;12.094;2023-06-26T10:29:36;37.30;11.90
18287;DHT22;9269;50.838;12.094;2023-06-26T10:32:10;37.40;11.70
18287;DHT22;9269;50.838;12.094;2023-06-26T10:34:40;37.50;11.60
18287;DHT22;9269;50.838;12.094;2023-06-26T10:37:09;37.50;10.20
18287;DHT22;9269;50.838;12.094;2023-06-26T10:39:49;37.60;11.00
18287;DHT22;9269;50.838;12.094;2023-06-26T10:42:19;37.70;11.30
18287;DHT22;9269;50.838;12.094;2023-06-26T10:44:48;37.60;11.30
18287;DHT22;9269;50.838;12.094;2023-06-26T10:47:29;37.80;11.50
18287;DHT22;9269;50.838;12.094;2023-06-26T10:50:18;37.90;11.10
18287;DHT22;9269;50.838;12.094;2023-06-26T10:53:08;37.90;11.20
18287;DHT22;9269;50.838;12.094;2023-06-26T10:55:41;38.00;10.50
18287;DHT22;9269;50.838;12.094;2023-06-26T10:58:30;38.00;10.80
18287;DHT22;9269;50.838;12.094;2023-06-26T11:01:17;38.10;11.40
18287;DHT22;9269;50.838;12.094;2023-06-26T11:03:48;38.20;10.50
18287;DHT22;9269;50.838;12.094;2023-06-26T11:06:19;38.20;11.10
18287;DHT22;9269;50.838;12.094;2023-06-26T11:08:50;38.10;10.90
18287;DHT22;9269;50.838;12.094;2023-06-26T11:11:21;38.20;10.80
18287;DHT22;9269;50.838;12.094;2023-06-26T11:13:50;38.40;10.30
18287;DHT22;9269;50.838;12.094;2023-06-26T11:16:19;38.50;10.30
18287;DHT22;9269;50.838;12.094;2023-06-26T11:18:49;38.40;10.40
18287;DHT22;9269;50.838;12.094;2023-06-26T11:21:21;38.40;10.20
18287;DHT22;9269;50.838;12.094;2023-06-26T11:23:52;38.50;10.10
18287;DHT22;9269;50.838;12.094;2023-06-26T11:26:26;38.60;9.60
18287;DHT22;9269;50.838;12.094;2023-06-26T11:28:56;38.70;10.10
18287;DHT22;9269;50.838;12.094;2023-06-26T11:31:25;38.40;10.20
18287;DHT22;9269;50.838;12.094;2023-06-26T11:34:03;38.40;10.50
18287;DHT22;9269;50.838;12.094;2023-06-26T11:36:32;38.40;10.00
18287;DHT22;9269;50.838;12.094;2023-06-26T11:39:05;38.40;9.90
18287;DHT22;9269;50.838;12.094;2023-06-26T11:41:37;38.50;9.40
18287;DHT22;9269;50.838;12.094;2023-06-26T11:44:07;38.70;9.90
18287;DHT22;9269;50.838;12.094;2023-06-26T11:46:36;38.70;10.00
18287;DHT22;9269;50.838;12.094;2023-06-26T11:49:05;38.60;10.80
18287;DHT22;9269;50.838;12.094;2023-06-26T11:51:35;38.40;10.30
18287;DHT22;9269;50.838;12.094;2023-06-26T11:54:04;38.60;10.20
18287;DHT22;9269;50.838;12.094;2023-06-26T11:56:33;38.70;10.40
18287;DHT22;9269;50.838;12.094;2023-06-26T11:59:04;38.90;9.60
18287;DHT22;9269;50.838;12.094;2023-06-26T12:01:39;39.00;9.90
18287;DHT22;9269;50.838;12.094;2023-06-26T12:04:10;39.30;10.10
18287;DHT22;9269;50.838;12.094;2023-06-26T12:06:42;39.30;9.40
18287;DHT22;9269;50.838;12.094;2023-06-26T12:09:13;39.30;9.30
18287;DHT22;9269;50.838;12.094;2023-06-26T12:11:43;39.40;9.10
18287;DHT22;9269;50.838;12.094;2023-06-26T12:14:14;39.00;8.90
18287;DHT22;9269;50.838;12.094;2023-06-26T12:16:43;39.40;9.50
18287;DHT22;9269;50.838;12.094;2023-06-26T12:19:12;39.50;9.50
18287;DHT22;9269;50.838;12.094;2023-06-26T12:21:47;39.50;9.10
18287;DHT22;9269;50.838;12.094;2023-06-26T12:24:20;39.90;9.00
18287;DHT22;9269;50.838;12.094;2023-06-26T12:26:53;39.80;8.70
18287;DHT22;9269;50.838;12.094;2023-06-26T12:29:32;40.00;8.50
18287;DHT22;9269;50.838;12.094;2023-06-26T12:32:01;39.80;8.60
18287;DHT22;9269;50.838;12.094;2023-06-26T12:34:31;39.80;8.60
18287;DHT22;9269;50.838;12.094;2023-06-26T12:37:02;39.50;8.70
18287;DHT22;9269;50.838;12.094;2023-06-26T12:39:46;39.40;8.50
18287;DHT22;9269;50.838;12.094;2023-06-26T12:42:17;39.10;8.20
18287;DHT22;9269;50.838;12.094;2023-06-26T12:44:47;38.90;8.90
18287;DHT22;9269;50.838;12.094;2023-06-26T12:47:18;38.50;9.10
18287;DHT22;9269;50.838;12.094;2023-06-26T12:49:51;38.40;9.20
18287;DHT22;9269;50.838;12.094;2023-06-26T12:52:21;38.20;9.10
18287;DHT22;9269;50.838;12.094;2023-06-26T12:54:52;38.30;9.40
18287;DHT22;9269;50.838;12.094;2023-06-26T12:57:21;38.40;9.60
18287;DHT22;9269;50.838;12.094;2023-06-26T12:59:52;38.80;8.70
18287;DHT22;9269;50.838;12.094;2023-06-26T13:02:20;39.00;7.90
18287;DHT22;9269;50.838;12.094;2023-06-26T13:04:50;39.10;8.50
18287;DHT22;9269;50.838;12.094;2023-06-26T13:07:18;39.40;7.70
18287;DHT22;9269;50.838;12.094;2023-06-26T13:09:47;39.50;7.70
18287;DHT22;9269;50.838;12.094;2023-06-26T13:12:16;39.50;8.10
18287;DHT22;9269;50.838;12.094;2023-06-26T13:14:44;39.40;8.40
18287;DHT22;9269;50.838;12.094;2023-06-26T13:17:14;39.60;8.50
18287;DHT22;9269;50.838;12.094;2023-06-26T13:19:46;39.40;8.60
18287;DHT22;9269;50.838;12.094;2023-06-26T13:22:14;39.20;8.00
18287;DHT22;9269;50.838;12.094;2023-06-26T13:24:43;39.10;7.80
18287;DHT22;9269;50.838;12.094;2023-06-26T13:27:11;38.90;7.10
18287;DHT22;9269;50.838;12.094;2023-06-26T13:29:40;38.70;7.90
18287;DHT22;9269;50.838;12.094;2023-06-26T13:32:10;38.50;8.30
18287;DHT22;9269;50.838;12.094;2023-06-26T13:34:40;38.40;8.30
18287;DHT22;9269;50.838;12.094;2023-06-26T13:37:09;38.40;8.10
18287;DHT22;9269;50.838;12.094;2023-06-26T13:39:38;38.40;8.40
18287;DHT22;9269;50.838;12.094;2023-06-26T13:42:08;38.30;8.60
18287;DHT22;9269;50.838;12.094;2023-06-26T13:44:38;38.30;8.10
18287;DHT22;9269;50.838;12.094;2023-06-26T13:47:26;38.50;7.70
18287;DHT22;9269;50.838;12.094;2023-06-26T13:49:56;38.90;8.70
18287;DHT22;9269;50.838;12.094;2023-06-26T13:52:25;39.00;8.90
18287;DHT22;9269;50.838;12.094;2023-06-26T13:54:53;39.20;7.80
18287;DHT22;9269;50.838;12.094;2023-06-26T13:57:22;39.10;8.40
18287;DHT22;9269;50.838;12.094;2023-06-26T13:59:51;39.20;8.50
18287;DHT22;9269;50.838;12.094;2023-06-26T14:02:20;39.30;7.70
18287;DHT22;9269;50.838;12.094;2023-06-26T14:04:48;39.10;7.70
18287;DHT22;9269;50.838;12.094;2023-06-26T14:07:18;38.90;7.00
18287;DHT22;9269;50.838;12.094;2023-06-26T14:09:46;38.60;7.10
18287;DHT22;9269;50.838;12.094;2023-06-26T14:12:15;38.30;7.30
18287;DHT22;9269;50.838;12.094;2023-06-26T14:14:44;38.10;7.70
18287;DHT22;9269;50.838;12.094;2023-06-26T14:17:13;37.70;7.40
18287;DHT22;9269;50.838;12.094;2023-06-26T14:19:43;37.40;7.40
18287;DHT22;9269;50.838;12.094;2023-06-26T14:22:13;37.00;7.80
18287;DHT22;9269;50.838;12.094;2023-06-26T14:24:43;36.80;8.20
18287;DHT22;9269;50.838;12.094;2023-06-26T14:27:11;36.40;9.20
18287;DHT22;9269;50.838;12.094;2023-06-26T14:29:40;35.90;10.30
18287;DHT22;9269;50.838;12.094;2023-06-26T14:32:08;35.50;11.70
18287;DHT22;9269;50.838;12.094;2023-06-26T14:34:36;35.20;12.20
18287;DHT22;9269;50.838;12.094;2023-06-26T14:37:05;34.90;13.00
18287;DHT22;9269;50.838;12.094;2023-06-26T14:39:34;34.70;13.60
18287;DHT22;9269;50.838;12.094;2023-06-26T14:42:05;34.50;15.20
18287;DHT22;9269;50.838;12.094;2023-06-26T14:44:34;34.30;15.60
18287;DHT22;9269;50.838;12.094;2023-06-26T14:47:05;34.10;16.40
18287;DHT22;9269;50.838;12.094;2023-06-26T14:49:34;34.00;16.90
18287;DHT22;9269;50.838;12.094;2023-06-26T14:52:02;33.90;17.30
18287;DHT22;9269;50.838;12.094;2023-06-26T14:54:31;33.90;17.40
18287;DHT22;9269;50.838;12.094;2023-06-26T14:57:01;33.90;17.40
18287;DHT22;9269;50.838;12.094;2023-06-26T14:59:32;33.90;17.30
18287;DHT22;9269;50.838;12.094;2023-06-26T15:02:01;34.00;17.70
18287;DHT22;9269;50.838;12.094;2023-06-26T15:04:31;34.10;18.30
18287;DHT22;9269;50.838;12.094;2023-06-26T15:07:00;34.10;18.00
18287;DHT22;9269;50.838;12.094;2023-06-26T15:09:28;34.20;18.30
18287;DHT22;9269;50.838;12.094;2023-06-26T15:12:00;34.20;18.40
18287;DHT22;9269;50.838;12.094;2023-06-26T15:14:31;34.20;18.70
18287;DHT22;9269;50.838;12.094;2023-06-26T15:17:00;34.10;19.10
18287;DHT22;9269;50.838;12.094;2023-06-26T15:19:31;34.10;19.20
18287;DHT22;9269;50.838;12.094;2023-06-26T15:22:00;34.00;20.10
18287;DHT22;9269;50.838;12.094;2023-06-26T15:24:28;34.00;20.50
18287;DHT22;9269;50.838;12.094;2023-06-26T15:26:57;33.90;20.90
18287;DHT22;9269;50.838;12.094;2023-06-26T15:29:26;33.90;20.50
18287;DHT22;9269;50.838;12.094;2023-06-26T15:31:56;33.50;20.40
18287;DHT22;9269;50.838;12.094;2023-06-26T15:34:24;33.30;20.50
18287;DHT22;9269;50.838;12.094;2023-06-26T15:36:53;33.10;20.10
18287;DHT22;9269;50.838;12.094;2023-06-26T15:39:22;32.90;20.10
18287;DHT22;9269;50.838;12.094;2023-06-26T15:41:50;32.90;20.60
18287;DHT22;9269;50.838;12.094;2023-06-26T15:44:24;32.80;20.50
18287;DHT22;9269;50.838;12.094;2023-06-26T15:46:53;32.70;20.30
18287;DHT22;9269;50.838;12.094;2023-06-26T15:49:23;32.70;20.70
18287;DHT22;9269;50.838;12.094;2023-06-26T15:51:52;32.70;20.40
18287;DHT22;9269;50.838;12.094;2023-06-26T15:54:21;32.40;20.30